createdAt,value
2023-01-08T00:00:52.880Z,11.03
2023-01-08T00:03:59.755Z,9.90
2023-01-08T00:07:07.127Z,10.28
2023-01-08T00:10:13.279Z,10.70
2023-01-08T00:13:21.191Z,10.58
2023-01-08T00:16:29.387Z,10.40
2023-01-08T00:19:34.494Z,9.93
2023-01-08T00:22:40.728Z,10.13
2023-01-08T00:25:48.015Z,9.48
2023-01-08T00:28:53.531Z,11.05
2023-01-08T00:32:02.153Z,11.70
2023-01-08T00:35:08.418Z,11.78
2023-01-08T00:38:14.824Z,9.95
2023-01-08T00:41:21.543Z,10.90
2023-01-08T00:44:27.448Z,11.85
2023-01-08T00:47:33.923Z,10.18
2023-01-08T00:50:39.838Z,10.15
2023-01-08T00:53:48.132Z,10.38
2023-01-08T00:56:54.789Z,11.25
2023-01-08T01:00:00.637Z,10.95
2023-01-08T01:03:07.613Z,11.18
2023-01-08T01:06:17.080Z,11.63
2023-01-08T01:09:25.966Z,9.38
2023-01-08T01:12:31.675Z,10.63
2023-01-08T01:15:38.704Z,11.25
2023-01-08T01:18:37.981Z,11.33
2023-01-08T01:21:44.381Z,11.28
2023-01-08T01:24:50.203Z,10.90
2023-01-08T01:27:55.923Z,12.30
2023-01-08T01:31:10.251Z,12.33
2023-01-08T01:34:15.398Z,11.40
2023-01-08T01:37:21.321Z,11.95
2023-01-08T01:40:26.482Z,12.55
2023-01-08T01:43:53.431Z,11.78
2023-01-08T01:46:58.907Z,11.28
2023-01-08T01:50:22.052Z,11.48
2023-01-08T01:56:36.687Z,11.38
2023-01-08T01:59:42.046Z,12.10
2023-01-08T02:02:48.428Z,12.15
2023-01-08T02:06:16.565Z,12.00
2023-01-08T02:09:51.685Z,12.65
2023-01-08T02:13:04.835Z,12.00
2023-01-08T02:16:14.713Z,11.43
2023-01-08T02:19:54.759Z,12.10
2023-01-08T02:23:46.141Z,12.95
2023-01-08T02:26:51.653Z,11.90
2023-01-08T02:29:57.768Z,11.97
2023-01-08T02:33:03.878Z,13.18
2023-01-08T02:36:32.547Z,11.68
2023-01-08T02:40:21.964Z,12.58
2023-01-08T02:43:34.826Z,14.63
2023-01-08T02:46:42.604Z,13.58
2023-01-08T02:49:49.481Z,13.13
2023-01-08T02:53:17.026Z,13.80
2023-01-08T02:56:25.814Z,14.30
2023-01-08T02:59:31.697Z,12.95
2023-01-08T03:02:41.205Z,13.40
2023-01-08T03:05:46.807Z,13.90
2023-01-08T03:08:57.248Z,14.53
2023-01-08T03:12:12.270Z,14.25
2023-01-08T03:15:22.583Z,14.53
2023-01-08T03:18:29.690Z,13.90
2023-01-08T03:21:36.022Z,13.43
2023-01-08T03:24:46.015Z,14.90
2023-01-08T03:27:54.806Z,14.03
2023-01-08T03:31:00.648Z,15.13
2023-01-08T03:34:06.648Z,13.38
2023-01-08T03:37:15.004Z,14.45
2023-01-08T03:40:34.203Z,14.25
2023-01-08T03:43:39.192Z,14.20
2023-01-08T03:46:46.973Z,14.95
2023-01-08T03:49:53.708Z,14.63
2023-01-08T03:53:01.915Z,12.25
2023-01-08T03:56:09.616Z,13.78
2023-01-08T03:59:14.708Z,13.10
2023-01-08T04:02:21.108Z,12.68
2023-01-08T04:05:27.717Z,12.68
2023-01-08T04:08:33.657Z,12.05
2023-01-08T04:11:38.997Z,12.23
2023-01-08T04:14:44.256Z,13.00
2023-01-08T04:17:50.836Z,13.62
2023-01-08T04:21:01.515Z,13.08
2023-01-08T04:24:08.705Z,12.58
2023-01-08T04:27:16.414Z,12.55
2023-01-08T04:30:22.365Z,12.45
2023-01-08T04:33:27.947Z,12.90
2023-01-08T04:36:33.333Z,12.58
2023-01-08T04:39:41.234Z,15.15
2023-01-08T04:42:46.318Z,13.43
2023-01-08T04:45:52.400Z,13.15
2023-01-08T04:48:58.932Z,13.75
2023-01-08T04:52:05.931Z,13.43
2023-01-08T04:55:12.419Z,13.88
2023-01-08T04:58:18.898Z,13.10
2023-01-08T05:01:35.379Z,11.75
2023-01-08T05:04:35.153Z,11.97
2023-01-08T05:07:22.575Z,12.20
2023-01-08T05:10:17.711Z,11.63
2023-01-08T05:13:09.223Z,12.25
2023-01-08T05:16:01.940Z,12.78
2023-01-08T05:19:07.110Z,12.18
2023-01-08T05:22:16.537Z,14.50
2023-01-08T05:25:24.462Z,12.03
2023-01-08T05:28:31.006Z,11.90
2023-01-08T05:31:38.384Z,15.30
2023-01-08T05:34:44.755Z,12.30
2023-01-08T05:37:51.295Z,13.38
2023-01-08T05:40:59.050Z,11.85
2023-01-08T05:44:06.165Z,12.88
2023-01-08T05:47:14.442Z,14.23
2023-01-08T05:50:23.151Z,12.65
2023-01-08T05:53:29.478Z,13.32
2023-01-08T05:56:35.878Z,12.43
2023-01-08T05:59:43.087Z,12.07
2023-01-08T06:02:49.485Z,13.88
2023-01-08T06:05:56.112Z,11.90
2023-01-08T06:09:03.140Z,12.53
2023-01-08T06:12:09.146Z,13.70
2023-01-08T06:15:14.736Z,13.08
2023-01-08T06:18:20.528Z,13.60
2023-01-08T06:21:26.700Z,14.10
2023-01-08T06:24:32.207Z,13.65
2023-01-08T06:27:40.698Z,13.03
2023-01-08T06:30:48.496Z,12.75
2023-01-08T06:33:55.421Z,13.53
2023-01-08T06:37:01.693Z,11.78
2023-01-08T06:40:08.640Z,12.88
2023-01-08T06:43:18.276Z,14.35
2023-01-08T06:46:23.648Z,12.70
2023-01-08T06:49:31.665Z,12.82
2023-01-08T06:52:39.567Z,12.85
2023-01-08T06:55:45.464Z,13.53
2023-01-08T06:58:51.104Z,12.07
2023-01-08T07:01:59.300Z,14.13
2023-01-08T07:05:04.113Z,12.95
2023-01-08T07:08:11.107Z,12.55
2023-01-08T07:11:20.475Z,12.78
2023-01-08T07:14:26.835Z,13.28
2023-01-08T07:17:33.907Z,13.55
2023-01-08T07:20:39.676Z,12.05
2023-01-08T07:23:46.424Z,13.85
2023-01-08T07:26:52.027Z,11.63
2023-01-08T07:29:57.806Z,13.75
2023-01-08T07:33:03.204Z,13.75
2023-01-08T07:36:09.187Z,13.13
2023-01-08T07:39:15.860Z,12.10
2023-01-08T07:42:23.052Z,12.68
2023-01-08T07:45:32.116Z,13.50
2023-01-08T07:48:38.568Z,12.40
2023-01-08T07:51:45.953Z,11.90
2023-01-08T07:54:52.522Z,12.43
2023-01-08T07:57:58.837Z,17.23
2023-01-08T08:01:05.487Z,16.02
2023-01-08T08:04:10.633Z,16.25
2023-01-08T08:07:16.743Z,18.15
2023-01-08T08:10:21.310Z,15.48
2023-01-08T08:13:28.174Z,22.73
2023-01-08T08:16:35.207Z,21.40
2023-01-08T08:19:40.892Z,14.43
2023-01-08T08:22:46.017Z,12.33
2023-01-08T08:25:51.019Z,10.35
2023-01-08T08:28:57.015Z,11.35
2023-01-08T08:32:02.486Z,10.48
2023-01-08T08:35:09.300Z,12.33
2023-01-08T08:38:17.436Z,12.05
2023-01-08T08:41:23.459Z,11.45
2023-01-08T08:44:30.806Z,12.40
2023-01-08T08:47:37.329Z,13.38
2023-01-08T08:50:47.527Z,15.08
2023-01-08T08:53:54.712Z,10.28
2023-01-08T08:57:02.303Z,10.90
2023-01-08T09:00:08.088Z,11.93
2023-01-08T09:03:15.584Z,11.30
2023-01-08T09:06:27.945Z,12.00
2023-01-08T09:09:34.458Z,12.35
2023-01-08T09:12:40.530Z,10.82
2023-01-08T09:15:46.807Z,10.25
2023-01-08T09:18:55.433Z,10.30
2023-01-08T09:22:00.407Z,10.18
2023-01-08T09:25:06.661Z,8.90
2023-01-08T09:28:19.831Z,10.68
2023-01-08T09:31:26.504Z,10.85
2023-01-08T09:34:33.164Z,11.73
2023-01-08T09:37:39.336Z,10.75
2023-01-08T09:40:56.004Z,11.83
2023-01-08T09:44:06.540Z,10.43
2023-01-08T09:47:13.039Z,11.08
2023-01-08T09:50:20.714Z,10.58
2023-01-08T09:53:29.593Z,10.85
2023-01-08T09:56:34.819Z,11.03
2023-01-08T09:59:42.603Z,12.15
2023-01-08T10:02:51.059Z,10.38
2023-01-08T10:05:56.080Z,10.68
2023-01-08T10:09:01.916Z,11.12
2023-01-08T10:12:06.786Z,10.00
2023-01-08T10:15:21.694Z,9.80
2023-01-08T10:18:28.555Z,9.25
2023-01-08T10:21:36.285Z,9.13
2023-01-08T10:24:50.098Z,10.32
2023-01-08T10:28:14.714Z,9.33
2023-01-08T10:31:25.441Z,9.10
2023-01-08T10:35:11.881Z,9.60
2023-01-08T10:38:19.277Z,8.58
2023-01-08T10:41:26.937Z,10.93
2023-01-08T10:44:32.964Z,10.98
2023-01-08T10:47:39.199Z,9.30
2023-01-08T10:50:47.020Z,9.95
2023-01-08T10:53:52.925Z,8.55
2023-01-08T10:57:02.299Z,8.28
2023-01-08T11:00:06.767Z,10.43
2023-01-08T11:03:16.085Z,8.98
2023-01-08T11:06:30.571Z,8.68
2023-01-08T11:09:41.300Z,11.97
2023-01-08T11:12:55.205Z,9.40
2023-01-08T11:16:01.668Z,8.85
2023-01-08T11:19:09.027Z,13.83
2023-01-08T11:22:40.241Z,9.13
2023-01-08T11:25:46.831Z,10.50
2023-01-08T11:29:32.135Z,9.88
2023-01-08T11:33:22.069Z,9.88
2023-01-08T11:36:36.996Z,12.75
2023-01-08T11:39:43.917Z,11.18
2023-01-08T11:43:09.103Z,9.78
2023-01-08T11:46:33.574Z,9.33
2023-01-08T11:49:51.206Z,9.55
2023-01-08T11:53:42.421Z,9.75
2023-01-08T12:00:15.409Z,9.43
2023-01-08T12:03:41.724Z,7.20
2023-01-08T12:07:13.583Z,11.55
2023-01-08T12:10:44.888Z,10.82
2023-01-08T12:14:07.139Z,8.40
2023-01-08T12:17:45.825Z,9.30
2023-01-08T12:21:06.917Z,9.75
2023-01-08T12:24:57.863Z,10.08
2023-01-08T12:28:32.034Z,7.25
2023-01-08T12:32:14.641Z,9.63
2023-01-08T12:35:43.735Z,9.15
2023-01-08T12:39:00.802Z,7.97
2023-01-08T12:42:07.047Z,11.75
2023-01-08T12:45:13.966Z,10.78
2023-01-08T12:48:35.746Z,12.05
2023-01-08T12:51:49.520Z,8.98
2023-01-08T12:55:33.333Z,8.10
2023-01-08T12:59:02.943Z,9.80
2023-01-08T13:02:50.642Z,9.25
2023-01-08T13:05:57.112Z,9.40
2023-01-08T13:09:08.216Z,10.93
2023-01-08T13:12:14.797Z,10.55
2023-01-08T13:15:21.692Z,12.98
2023-01-08T13:18:37.217Z,11.57
2023-01-08T13:21:55.041Z,10.25
2023-01-08T13:25:03.095Z,11.35
2023-01-08T13:28:10.544Z,9.23
2023-01-08T13:31:37.040Z,10.78
2023-01-08T13:34:53.811Z,9.68
2023-01-08T13:38:06.856Z,11.12
2023-01-08T13:41:12.489Z,12.05
2023-01-08T13:44:41.768Z,9.95
2023-01-08T13:47:49.478Z,10.48
2023-01-08T13:50:54.730Z,10.13
2023-01-08T13:54:03.969Z,8.93
2023-01-08T13:57:10.555Z,8.35
2023-01-08T14:00:15.669Z,9.13
2023-01-08T14:03:20.381Z,8.78
2023-01-08T14:06:35.015Z,11.73
2023-01-08T14:09:40.897Z,11.28
2023-01-08T14:12:45.601Z,9.25
2023-01-08T14:15:51.608Z,8.05
2023-01-08T14:19:00.177Z,7.62
2023-01-08T14:22:14.331Z,9.33
2023-01-08T14:25:21.719Z,11.35
2023-01-08T14:28:33.609Z,11.80
2023-01-08T14:34:48.002Z,21.97
2023-01-08T14:37:55.050Z,14.68
2023-01-08T14:41:25.281Z,15.28
2023-01-08T14:44:38.022Z,14.60
2023-01-08T14:47:40.213Z,12.85
2023-01-08T14:50:56.395Z,15.50
2023-01-08T14:54:06.109Z,17.80
2023-01-08T14:57:12.645Z,26.87
2023-01-08T15:00:17.449Z,17.65
2023-01-08T15:03:47.107Z,19.07
2023-01-08T15:06:53.770Z,17.27
2023-01-08T15:10:01.828Z,16.25
2023-01-08T15:13:13.282Z,14.28
2023-01-08T15:16:27.358Z,19.45
2023-01-08T15:19:37.192Z,20.92
2023-01-08T15:22:44.800Z,22.20
2023-01-08T15:25:50.340Z,21.93
2023-01-08T15:29:06.857Z,20.82
2023-01-08T15:32:12.498Z,13.25
2023-01-08T15:35:33.106Z,15.40
2023-01-08T15:38:41.389Z,15.65
2023-01-08T15:42:09.077Z,14.33
2023-01-08T15:45:14.796Z,13.20
2023-01-08T15:48:21.366Z,13.68
2023-01-08T15:51:28.339Z,11.40
2023-01-08T15:54:35.011Z,13.32
2023-01-08T15:57:44.781Z,13.08
2023-01-08T16:00:49.866Z,15.63
2023-01-08T16:03:56.888Z,16.02
2023-01-08T16:07:06.591Z,13.53
2023-01-08T16:10:13.273Z,12.60
2023-01-08T16:13:19.002Z,15.25
2023-01-08T16:16:27.319Z,13.05
2023-01-08T16:19:36.445Z,12.47
2023-01-08T16:22:42.658Z,11.53
2023-01-08T16:25:49.312Z,11.55
2023-01-08T16:28:54.391Z,11.78
2023-01-08T16:32:02.823Z,11.68
2023-01-08T16:35:10.019Z,10.18
2023-01-08T16:38:17.380Z,10.10
2023-01-08T16:41:24.482Z,11.45
2023-01-08T16:44:35.338Z,13.18
2023-01-08T16:47:41.498Z,18.90
2023-01-08T16:50:48.890Z,11.93
2023-01-08T16:53:56.146Z,10.68
2023-01-08T16:57:01.907Z,9.88
2023-01-08T17:00:07.199Z,10.40
2023-01-08T17:03:13.392Z,11.50
2023-01-08T17:06:20.622Z,10.60
2023-01-08T17:09:26.979Z,9.30
2023-01-08T17:12:32.977Z,11.68
2023-01-08T17:15:40.615Z,12.18
2023-01-08T17:18:46.236Z,11.95
2023-01-08T17:21:54.994Z,12.68
2023-01-08T17:24:55.231Z,11.97
2023-01-08T17:27:45.240Z,12.15
2023-01-08T17:30:38.132Z,12.75
2023-01-08T17:33:23.924Z,13.08
2023-01-08T17:36:22.537Z,13.70
2023-01-08T17:39:10.227Z,12.68
2023-01-08T17:42:21.198Z,12.18
2023-01-08T17:45:27.454Z,12.28
2023-01-08T17:48:34.277Z,12.80
2023-01-08T17:51:40.713Z,12.82
2023-01-08T17:54:47.047Z,12.60
2023-01-08T17:57:54.074Z,11.50
2023-01-08T18:01:02.132Z,13.93
2023-01-08T18:04:07.488Z,13.93
2023-01-08T18:07:12.513Z,13.25
2023-01-08T18:10:20.229Z,13.10
2023-01-08T18:13:28.011Z,13.85
2023-01-08T18:16:33.811Z,12.55
2023-01-08T18:19:39.999Z,13.83
2023-01-08T18:22:47.046Z,12.90
2023-01-08T18:25:57.421Z,11.22
2023-01-08T18:29:04.901Z,13.38
2023-01-08T18:32:12.305Z,11.73
2023-01-08T18:35:21.413Z,12.43
2023-01-08T18:38:26.853Z,13.08
2023-01-08T18:41:58.255Z,13.35
2023-01-08T18:45:05.714Z,15.35
2023-01-08T18:48:11.675Z,14.80
2023-01-08T18:51:18.750Z,13.65
2023-01-08T18:54:26.602Z,14.33
2023-01-08T18:57:32.511Z,14.00
2023-01-08T19:00:40.592Z,14.70
2023-01-08T19:03:46.958Z,19.17
2023-01-08T19:06:52.181Z,18.67
2023-01-08T19:09:58.106Z,13.45
2023-01-08T19:13:03.574Z,14.33
2023-01-08T19:16:08.373Z,14.40
2023-01-08T19:19:13.930Z,12.55
2023-01-08T19:22:21.712Z,13.70
2023-01-08T19:25:28.998Z,18.73
2023-01-08T19:28:36.182Z,16.10
2023-01-08T19:31:42.168Z,14.80
2023-01-08T19:34:49.062Z,14.07
2023-01-08T19:37:56.023Z,15.20
2023-01-08T19:41:02.881Z,21.93
2023-01-08T19:44:12.396Z,17.37
2023-01-08T19:47:18.895Z,16.10
2023-01-08T19:50:26.347Z,15.78
2023-01-08T19:53:32.285Z,14.30
2023-01-08T19:56:38.833Z,15.10
2023-01-08T19:59:44.964Z,13.75
2023-01-08T20:02:49.990Z,13.48
2023-01-08T20:05:56.782Z,14.05
2023-01-08T20:09:09.116Z,14.25
2023-01-08T20:12:15.277Z,14.33
2023-01-08T20:15:24.309Z,14.13
2023-01-08T20:18:30.769Z,13.83
2023-01-08T20:21:36.112Z,13.50
2023-01-08T20:24:43.704Z,13.03
2023-01-08T20:27:48.869Z,13.35
2023-01-08T20:30:56.181Z,12.43
2023-01-08T20:34:02.283Z,13.65
2023-01-08T20:37:08.276Z,13.40
2023-01-08T20:40:13.995Z,12.65
2023-01-08T20:43:21.062Z,13.13
2023-01-08T20:46:26.724Z,13.30
2023-01-08T20:49:33.937Z,14.07
2023-01-08T20:52:43.794Z,13.32
2023-01-08T20:55:50.551Z,14.28
2023-01-08T20:58:59.413Z,13.40
2023-01-08T21:02:08.379Z,12.43
2023-01-08T21:05:15.245Z,14.87
2023-01-08T21:08:21.308Z,14.83
2023-01-08T21:11:29.876Z,15.35
2023-01-08T21:14:36.000Z,15.03
2023-01-08T21:17:41.309Z,14.13
2023-01-08T21:20:46.871Z,15.40
2023-01-08T21:23:52.151Z,14.40
2023-01-08T21:27:00.308Z,13.62
2023-01-08T21:30:08.797Z,16.45
2023-01-08T21:33:16.149Z,13.85
2023-01-08T21:36:25.970Z,13.53
2023-01-08T21:39:34.951Z,14.65
2023-01-08T21:43:00.236Z,14.73
2023-01-08T21:46:13.513Z,16.10
2023-01-08T21:49:18.842Z,14.28
2023-01-08T21:52:42.483Z,14.40
2023-01-08T21:55:49.825Z,13.83
2023-01-08T21:58:55.836Z,15.93
2023-01-08T22:02:03.311Z,13.95
2023-01-08T22:05:12.974Z,15.32
2023-01-08T22:08:21.707Z,15.65
2023-01-08T22:11:31.074Z,15.08
2023-01-08T22:14:37.325Z,15.08
2023-01-08T22:17:45.058Z,14.35
2023-01-08T22:20:51.222Z,14.90
2023-01-08T22:23:59.142Z,14.60
2023-01-08T22:27:05.928Z,15.70
2023-01-08T22:30:10.872Z,16.65
2023-01-08T22:33:16.850Z,14.68
2023-01-08T22:36:25.595Z,15.20
2023-01-08T22:39:31.078Z,14.98
2023-01-08T22:42:38.936Z,13.58
2023-01-08T22:45:44.147Z,14.68
2023-01-08T22:48:51.182Z,16.02
2023-01-08T22:51:57.118Z,14.95
2023-01-08T22:55:05.354Z,14.87
2023-01-08T22:58:11.609Z,15.28
2023-01-08T23:01:18.517Z,16.90
2023-01-08T23:04:25.043Z,13.25
2023-01-08T23:07:31.144Z,14.60
2023-01-08T23:10:38.214Z,15.93
2023-01-08T23:13:46.184Z,15.68
2023-01-08T23:16:51.819Z,15.30
2023-01-08T23:19:57.845Z,13.03
2023-01-08T23:23:04.946Z,13.43
2023-01-08T23:26:10.905Z,14.78
2023-01-08T23:29:17.826Z,15.03
2023-01-08T23:32:23.824Z,15.70
2023-01-08T23:35:33.080Z,15.95
2023-01-08T23:38:38.895Z,16.60
2023-01-08T23:41:45.667Z,15.45
2023-01-08T23:44:51.784Z,13.62
2023-01-08T23:47:58.757Z,15.15
2023-01-08T23:51:04.034Z,16.40
2023-01-08T23:54:10.410Z,15.50
2023-01-08T23:57:17.266Z,15.32
